메인 페이지
METAR-TAF:

METAR-TAF

공항 :

암만, 요르단

위도: 31-59N, 경도: 035-59E, 고도: 767m

현재 날씨관측

예보는 36분 전, 22:00시(UTC)에 발표되었습니다.
북서7kt
온도 20°C
습도 73%
기압 1012 hPa
시정: 6000m

METAR: OJAM 182200Z 32007KT 6000 NSC 20/15 Q1012 NOSIG

시각: 01:36 (22:36 UTC)

예보

예보는 5 시간 46분 전, 16:50시(UTC)에 발표되었습니다.
예보 대상 시간: 18일 18시부터 19일 24시까지 (UTC)
10kt
시정: 6000m
고도 3000ft 상공 구름 조금
일시적
19일 02시부터 19일 05시까지 (UTC)
여러 방향의 바람 2kt
시정: 3000m
연무
전환 중
19일 05시부터 19일 07시까지 (UTC)
12kt
시정: 5000m
고도 3000ft 상공 구름 조금
연무

TAF: OJAM 181650Z 1818/1924 28010KT 6000 FEW030 TEMPO 1902/1905 VRB02KT 3000 HZ BECMG 1905/1907 27012KT 5000 HZ FEW030

4,000개 이상의 공항 관측 자료 및 예보 (METAR 및 TAF 보고).

지도상에서 검색 가능한 기상관측소가 노란 점과 빨간 점으로 표시되어 있습니다.

기상관측소 명을 보려면 표시 위로 마우스를 이동하세요.

날씨 관측과 예보를 보려면 클릭하세요.

지도 변경 : 확대하려면 엑스 표시가 있는 녹색 버튼, 축소하려면 빼기 표시가 있는 녹색 버튼, 다음 페이지의 지도를 보려면 녹색 화살표를 클릭하세요.


METAR-TAF: